sensor_id;sensor_type;location;lat;lon;timestamp;P1;durP1;ratioP1;P2;durP2;ratioP2
14143;SDS011;7152;48.348;10.980;2023-06-10T00:00:39;8.73;;;7.93;;
14143;SDS011;7152;48.348;10.980;2023-06-10T00:03:06;9.30;;;8.60;;
14143;SDS011;7152;48.348;10.980;2023-06-10T00:05:33;8.77;;;8.07;;
14143;SDS011;7152;48.348;10.980;2023-06-10T00:07:59;9.03;;;8.17;;
14143;SDS011;7152;48.348;10.980;2023-06-10T00:10:26;8.47;;;7.77;;
14143;SDS011;7152;48.348;10.980;2023-06-10T00:12:52;9.27;;;8.43;;
14143;SDS011;7152;48.348;10.980;2023-06-10T00:15:18;9.10;;;8.30;;
14143;SDS011;7152;48.348;10.980;2023-06-10T00:17:43;9.57;;;8.67;;
14143;SDS011;7152;48.348;10.980;2023-06-10T00:20:09;8.83;;;8.10;;
14143;SDS011;7152;48.348;10.980;2023-06-10T00:22:37;9.60;;;8.80;;
14143;SDS011;7152;48.348;10.980;2023-06-10T00:25:05;9.60;;;8.80;;
14143;SDS011;7152;48.348;10.980;2023-06-10T00:27:31;8.97;;;8.13;;
14143;SDS011;7152;48.348;10.980;2023-06-10T00:30:00;9.73;;;8.90;;
14143;SDS011;7152;48.348;10.980;2023-06-10T00:32:29;9.80;;;8.97;;
14143;SDS011;7152;48.348;10.980;2023-06-10T00:34:55;9.23;;;8.53;;
14143;SDS011;7152;48.348;10.980;2023-06-10T00:37:21;9.83;;;9.03;;
14143;SDS011;7152;48.348;10.980;2023-06-10T00:39:47;10.37;;;9.57;;
14143;SDS011;7152;48.348;10.980;2023-06-10T00:42:13;10.60;;;9.57;;
14143;SDS011;7152;48.348;10.980;2023-06-10T00:44:38;10.13;;;9.33;;
14143;SDS011;7152;48.348;10.980;2023-06-10T00:47:04;10.83;;;9.83;;
14143;SDS011;7152;48.348;10.980;2023-06-10T00:49:32;10.23;;;9.33;;
14143;SDS011;7152;48.348;10.980;2023-06-10T00:51:58;11.33;;;10.33;;
14143;SDS011;7152;48.348;10.980;2023-06-10T00:54:24;10.93;;;9.87;;
14143;SDS011;7152;48.348;10.980;2023-06-10T00:56:50;10.73;;;9.63;;
14143;SDS011;7152;48.348;10.980;2023-06-10T00:59:17;10.20;;;9.23;;
14143;SDS011;7152;48.348;10.980;2023-06-10T01:01:43;10.87;;;10.00;;
14143;SDS011;7152;48.348;10.980;2023-06-10T01:04:12;11.63;;;10.17;;
14143;SDS011;7152;48.348;10.980;2023-06-10T01:09:22;11.03;;;10.03;;
14143;SDS011;7152;48.348;10.980;2023-06-10T01:12:24;10.63;;;9.57;;
14143;SDS011;7152;48.348;10.980;2023-06-10T01:14:55;10.57;;;9.67;;
14143;SDS011;7152;48.348;10.980;2023-06-10T01:17:23;10.23;;;9.43;;
14143;SDS011;7152;48.348;10.980;2023-06-10T01:19:55;10.47;;;9.67;;
14143;SDS011;7152;48.348;10.980;2023-06-10T01:22:22;10.40;;;9.50;;
14143;SDS011;7152;48.348;10.980;2023-06-10T01:24:57;10.77;;;9.87;;
14143;SDS011;7152;48.348;10.980;2023-06-10T01:27:24;11.50;;;10.40;;
14143;SDS011;7152;48.348;10.980;2023-06-10T01:29:58;12.10;;;10.90;;
14143;SDS011;7152;48.348;10.980;2023-06-10T01:32:32;11.50;;;10.40;;
14143;SDS011;7152;48.348;10.980;2023-06-10T01:35:01;10.30;;;9.40;;
14143;SDS011;7152;48.348;10.980;2023-06-10T01:37:28;11.83;;;10.63;;
14143;SDS011;7152;48.348;10.980;2023-06-10T01:39:56;11.73;;;10.73;;
14143;SDS011;7152;48.348;10.980;2023-06-10T01:42:23;12.30;;;11.13;;
14143;SDS011;7152;48.348;10.980;2023-06-10T01:44:50;11.80;;;10.70;;
14143;SDS011;7152;48.348;10.980;2023-06-10T01:47:16;10.83;;;9.93;;
14143;SDS011;7152;48.348;10.980;2023-06-10T01:49:42;11.80;;;10.73;;
14143;SDS011;7152;48.348;10.980;2023-06-10T01:52:08;11.60;;;10.60;;
14143;SDS011;7152;48.348;10.980;2023-06-10T01:54:34;11.90;;;10.80;;
14143;SDS011;7152;48.348;10.980;2023-06-10T01:56:59;11.03;;;10.13;;
14143;SDS011;7152;48.348;10.980;2023-06-10T01:59:26;12.13;;;10.93;;
14143;SDS011;7152;48.348;10.980;2023-06-10T02:01:51;12.20;;;11.03;;
14143;SDS011;7152;48.348;10.980;2023-06-10T02:04:17;11.37;;;10.37;;
14143;SDS011;7152;48.348;10.980;2023-06-10T02:06:43;11.13;;;10.13;;
14143;SDS011;7152;48.348;10.980;2023-06-10T02:09:10;12.40;;;11.17;;
14143;SDS011;7152;48.348;10.980;2023-06-10T02:11:35;11.80;;;10.63;;
14143;SDS011;7152;48.348;10.980;2023-06-10T02:14:01;11.60;;;10.70;;
14143;SDS011;7152;48.348;10.980;2023-06-10T02:16:27;11.00;;;10.00;;
14143;SDS011;7152;48.348;10.980;2023-06-10T02:18:52;11.10;;;10.17;;
14143;SDS011;7152;48.348;10.980;2023-06-10T02:21:19;11.57;;;10.57;;
14143;SDS011;7152;48.348;10.980;2023-06-10T02:23:45;11.73;;;10.77;;
14143;SDS011;7152;48.348;10.980;2023-06-10T02:26:10;12.23;;;10.90;;
14143;SDS011;7152;48.348;10.980;2023-06-10T02:28:36;12.37;;;11.30;;
14143;SDS011;7152;48.348;10.980;2023-06-10T02:31:02;12.60;;;11.40;;
14143;SDS011;7152;48.348;10.980;2023-06-10T02:33:27;11.93;;;10.83;;
14143;SDS011;7152;48.348;10.980;2023-06-10T02:35:53;11.40;;;10.40;;
14143;SDS011;7152;48.348;10.980;2023-06-10T02:38:20;12.47;;;11.37;;
14143;SDS011;7152;48.348;10.980;2023-06-10T02:40:45;13.33;;;12.13;;
14143;SDS011;7152;48.348;10.980;2023-06-10T02:43:11;13.00;;;11.90;;
14143;SDS011;7152;48.348;10.980;2023-06-10T02:45:37;12.50;;;11.47;;
14143;SDS011;7152;48.348;10.980;2023-06-10T02:48:02;12.33;;;11.13;;
14143;SDS011;7152;48.348;10.980;2023-06-10T02:50:28;12.37;;;11.37;;
14143;SDS011;7152;48.348;10.980;2023-06-10T02:52:53;12.07;;;11.03;;
14143;SDS011;7152;48.348;10.980;2023-06-10T02:55:19;13.00;;;11.80;;
14143;SDS011;7152;48.348;10.980;2023-06-10T02:57:45;13.30;;;12.10;;
14143;SDS011;7152;48.348;10.980;2023-06-10T03:00:11;12.53;;;11.40;;
14143;SDS011;7152;48.348;10.980;2023-06-10T03:02:39;11.90;;;10.83;;
14143;SDS011;7152;48.348;10.980;2023-06-10T03:05:05;13.10;;;11.90;;
14143;SDS011;7152;48.348;10.980;2023-06-10T03:07:35;12.93;;;11.83;;
14143;SDS011;7152;48.348;10.980;2023-06-10T03:10:01;11.80;;;10.90;;
14143;SDS011;7152;48.348;10.980;2023-06-10T03:12:27;13.20;;;12.00;;
14143;SDS011;7152;48.348;10.980;2023-06-10T03:14:52;12.77;;;11.67;;
14143;SDS011;7152;48.348;10.980;2023-06-10T03:17:18;11.97;;;10.97;;
14143;SDS011;7152;48.348;10.980;2023-06-10T03:19:43;13.10;;;11.90;;
14143;SDS011;7152;48.348;10.980;2023-06-10T03:22:13;11.97;;;10.87;;
14143;SDS011;7152;48.348;10.980;2023-06-10T03:24:39;12.43;;;11.33;;
14143;SDS011;7152;48.348;10.980;2023-06-10T03:27:08;13.10;;;12.00;;
14143;SDS011;7152;48.348;10.980;2023-06-10T03:29:35;12.53;;;11.43;;
14143;SDS011;7152;48.348;10.980;2023-06-10T03:32:01;12.20;;;11.20;;
14143;SDS011;7152;48.348;10.980;2023-06-10T03:34:26;12.40;;;11.33;;
14143;SDS011;7152;48.348;10.980;2023-06-10T03:36:52;13.10;;;11.97;;
14143;SDS011;7152;48.348;10.980;2023-06-10T03:39:18;12.40;;;11.40;;
14143;SDS011;7152;48.348;10.980;2023-06-10T03:41:43;11.87;;;10.83;;
14143;SDS011;7152;48.348;10.980;2023-06-10T03:44:09;11.83;;;10.87;;
14143;SDS011;7152;48.348;10.980;2023-06-10T03:46:35;12.57;;;11.47;;
14143;SDS011;7152;48.348;10.980;2023-06-10T03:49:00;13.07;;;11.93;;
14143;SDS011;7152;48.348;10.980;2023-06-10T03:51:26;13.20;;;12.00;;
14143;SDS011;7152;48.348;10.980;2023-06-10T03:53:52;12.50;;;11.40;;
14143;SDS011;7152;48.348;10.980;2023-06-10T03:56:18;12.27;;;11.17;;
14143;SDS011;7152;48.348;10.980;2023-06-10T03:58:43;12.13;;;11.03;;
14143;SDS011;7152;48.348;10.980;2023-06-10T04:01:09;13.07;;;11.87;;
14143;SDS011;7152;48.348;10.980;2023-06-10T04:03:35;12.17;;;11.07;;
14143;SDS011;7152;48.348;10.980;2023-06-10T04:06:06;12.23;;;11.00;;
14143;SDS011;7152;48.348;10.980;2023-06-10T04:08:32;12.07;;;10.97;;
14143;SDS011;7152;48.348;10.980;2023-06-10T04:10:58;11.70;;;10.70;;
14143;SDS011;7152;48.348;10.980;2023-06-10T04:13:23;12.67;;;11.47;;
14143;SDS011;7152;48.348;10.980;2023-06-10T04:15:49;11.53;;;10.53;;
14143;SDS011;7152;48.348;10.980;2023-06-10T04:18:15;12.60;;;11.40;;
14143;SDS011;7152;48.348;10.980;2023-06-10T04:20:41;12.70;;;11.50;;
14143;SDS011;7152;48.348;10.980;2023-06-10T04:23:06;11.93;;;10.83;;
14143;SDS011;7152;48.348;10.980;2023-06-10T04:25:32;11.73;;;10.73;;
14143;SDS011;7152;48.348;10.980;2023-06-10T04:27:58;11.67;;;10.67;;
14143;SDS011;7152;48.348;10.980;2023-06-10T04:30:24;12.57;;;11.47;;
14143;SDS011;7152;48.348;10.980;2023-06-10T04:32:50;12.30;;;11.20;;
14143;SDS011;7152;48.348;10.980;2023-06-10T04:35:19;11.50;;;10.50;;
14143;SDS011;7152;48.348;10.980;2023-06-10T04:37:44;12.23;;;11.03;;
14143;SDS011;7152;48.348;10.980;2023-06-10T04:40:10;12.40;;;11.20;;
14143;SDS011;7152;48.348;10.980;2023-06-10T04:42:36;11.83;;;10.80;;
14143;SDS011;7152;48.348;10.980;2023-06-10T04:45:02;12.00;;;10.90;;
14143;SDS011;7152;48.348;10.980;2023-06-10T04:47:28;12.17;;;10.87;;
14143;SDS011;7152;48.348;10.980;2023-06-10T04:49:57;11.60;;;10.50;;
14143;SDS011;7152;48.348;10.980;2023-06-10T04:52:24;11.60;;;10.60;;
14143;SDS011;7152;48.348;10.980;2023-06-10T04:54:49;11.23;;;10.23;;
14143;SDS011;7152;48.348;10.980;2023-06-10T04:57:15;11.47;;;10.47;;
14143;SDS011;7152;48.348;10.980;2023-06-10T04:59:40;11.63;;;10.63;;
14143;SDS011;7152;48.348;10.980;2023-06-10T05:02:06;11.43;;;10.43;;
14143;SDS011;7152;48.348;10.980;2023-06-10T05:04:32;12.13;;;11.03;;
14143;SDS011;7152;48.348;10.980;2023-06-10T05:06:57;11.67;;;10.53;;
14143;SDS011;7152;48.348;10.980;2023-06-10T05:09:23;11.20;;;10.20;;
14143;SDS011;7152;48.348;10.980;2023-06-10T05:11:49;11.83;;;10.83;;
14143;SDS011;7152;48.348;10.980;2023-06-10T05:14:15;12.00;;;11.00;;
14143;SDS011;7152;48.348;10.980;2023-06-10T05:16:41;11.50;;;10.50;;
14143;SDS011;7152;48.348;10.980;2023-06-10T05:19:08;11.33;;;10.43;;
14143;SDS011;7152;48.348;10.980;2023-06-10T05:21:34;11.00;;;10.10;;
14143;SDS011;7152;48.348;10.980;2023-06-10T05:23:59;10.73;;;9.83;;
14143;SDS011;7152;48.348;10.980;2023-06-10T05:26:25;11.63;;;10.43;;
14143;SDS011;7152;48.348;10.980;2023-06-10T05:28:51;10.83;;;9.90;;
14143;SDS011;7152;48.348;10.980;2023-06-10T05:31:17;10.33;;;9.43;;
14143;SDS011;7152;48.348;10.980;2023-06-10T05:33:43;10.97;;;9.97;;
14143;SDS011;7152;48.348;10.980;2023-06-10T05:36:08;10.60;;;9.60;;
14143;SDS011;7152;48.348;10.980;2023-06-10T05:38:34;10.43;;;9.53;;
14143;SDS011;7152;48.348;10.980;2023-06-10T05:41:00;11.00;;;10.10;;
14143;SDS011;7152;48.348;10.980;2023-06-10T05:43:25;11.60;;;10.60;;
14143;SDS011;7152;48.348;10.980;2023-06-10T05:45:51;10.73;;;9.83;;
14143;SDS011;7152;48.348;10.980;2023-06-10T05:48:17;11.27;;;10.30;;
14143;SDS011;7152;48.348;10.980;2023-06-10T05:50:44;11.00;;;10.00;;
14143;SDS011;7152;48.348;10.980;2023-06-10T05:53:13;10.50;;;9.60;;
14143;SDS011;7152;48.348;10.980;2023-06-10T05:55:42;10.60;;;9.60;;
14143;SDS011;7152;48.348;10.980;2023-06-10T05:58:11;11.03;;;10.03;;
14143;SDS011;7152;48.348;10.980;2023-06-10T06:00:40;10.83;;;9.90;;
14143;SDS011;7152;48.348;10.980;2023-06-10T06:03:06;12.07;;;10.73;;
14143;SDS011;7152;48.348;10.980;2023-06-10T06:05:36;10.97;;;10.03;;
14143;SDS011;7152;48.348;10.980;2023-06-10T06:08:05;10.50;;;9.47;;
14143;SDS011;7152;48.348;10.980;2023-06-10T06:10:32;11.17;;;10.07;;
14143;SDS011;7152;48.348;10.980;2023-06-10T06:12:58;11.90;;;10.80;;
14143;SDS011;7152;48.348;10.980;2023-06-10T06:15:23;11.63;;;10.53;;
14143;SDS011;7152;48.348;10.980;2023-06-10T06:17:49;11.63;;;10.63;;
14143;SDS011;7152;48.348;10.980;2023-06-10T06:20:17;12.03;;;10.93;;
14143;SDS011;7152;48.348;10.980;2023-06-10T06:22:46;11.97;;;11.00;;
14143;SDS011;7152;48.348;10.980;2023-06-10T06:25:12;11.80;;;10.60;;
14143;SDS011;7152;48.348;10.980;2023-06-10T06:27:37;12.27;;;11.13;;
14143;SDS011;7152;48.348;10.980;2023-06-10T06:30:03;12.33;;;11.23;;
14143;SDS011;7152;48.348;10.980;2023-06-10T06:32:30;12.87;;;11.67;;
14143;SDS011;7152;48.348;10.980;2023-06-10T06:34:55;11.20;;;10.20;;
14143;SDS011;7152;48.348;10.980;2023-06-10T06:37:22;11.30;;;10.30;;
14143;SDS011;7152;48.348;10.980;2023-06-10T06:39:49;11.87;;;10.73;;
14143;SDS011;7152;48.348;10.980;2023-06-10T06:42:15;11.47;;;10.37;;
14143;SDS011;7152;48.348;10.980;2023-06-10T06:44:41;10.70;;;9.70;;
14143;SDS011;7152;48.348;10.980;2023-06-10T06:47:07;10.73;;;9.73;;
14143;SDS011;7152;48.348;10.980;2023-06-10T06:49:33;10.70;;;9.80;;
14143;SDS011;7152;48.348;10.980;2023-06-10T06:51:59;10.73;;;9.73;;
14143;SDS011;7152;48.348;10.980;2023-06-10T06:54:24;9.60;;;8.80;;
14143;SDS011;7152;48.348;10.980;2023-06-10T06:56:50;10.17;;;9.27;;
14143;SDS011;7152;48.348;10.980;2023-06-10T06:59:16;9.77;;;8.77;;
14143;SDS011;7152;48.348;10.980;2023-06-10T07:01:44;9.40;;;8.60;;
14143;SDS011;7152;48.348;10.980;2023-06-10T07:04:10;9.73;;;8.83;;
14143;SDS011;7152;48.348;10.980;2023-06-10T07:06:36;9.10;;;8.37;;
14143;SDS011;7152;48.348;10.980;2023-06-10T07:09:03;8.93;;;8.13;;
14143;SDS011;7152;48.348;10.980;2023-06-10T07:11:29;9.50;;;8.70;;
14143;SDS011;7152;48.348;10.980;2023-06-10T07:13:55;9.47;;;8.77;;
14143;SDS011;7152;48.348;10.980;2023-06-10T07:16:21;9.60;;;8.70;;
14143;SDS011;7152;48.348;10.980;2023-06-10T07:18:47;10.43;;;9.53;;
14143;SDS011;7152;48.348;10.980;2023-06-10T07:21:13;9.47;;;8.67;;
14143;SDS011;7152;48.348;10.980;2023-06-10T07:23:41;9.07;;;8.30;;
14143;SDS011;7152;48.348;10.980;2023-06-10T07:26:08;8.50;;;7.80;;
14143;SDS011;7152;48.348;10.980;2023-06-10T07:28:38;8.80;;;8.00;;
14143;SDS011;7152;48.348;10.980;2023-06-10T07:31:04;8.60;;;7.90;;
14143;SDS011;7152;48.348;10.980;2023-06-10T07:33:30;8.27;;;7.47;;
14143;SDS011;7152;48.348;10.980;2023-06-10T07:35:56;9.07;;;8.27;;
14143;SDS011;7152;48.348;10.980;2023-06-10T07:38:21;8.23;;;7.53;;
14143;SDS011;7152;48.348;10.980;2023-06-10T07:40:47;8.10;;;7.40;;
14143;SDS011;7152;48.348;10.980;2023-06-10T07:43:12;8.00;;;7.40;;
14143;SDS011;7152;48.348;10.980;2023-06-10T07:45:41;8.80;;;8.00;;
14143;SDS011;7152;48.348;10.980;2023-06-10T07:48:07;8.83;;;8.13;;
14143;SDS011;7152;48.348;10.980;2023-06-10T07:50:33;8.17;;;7.37;;
14143;SDS011;7152;48.348;10.980;2023-06-10T07:52:59;7.63;;;6.97;;
14143;SDS011;7152;48.348;10.980;2023-06-10T07:55:24;7.20;;;6.57;;
14143;SDS011;7152;48.348;10.980;2023-06-10T07:57:53;7.53;;;6.83;;
14143;SDS011;7152;48.348;10.980;2023-06-10T08:00:19;7.00;;;6.40;;
14143;SDS011;7152;48.348;10.980;2023-06-10T08:02:45;7.07;;;6.47;;
14143;SDS011;7152;48.348;10.980;2023-06-10T08:05:11;7.23;;;6.63;;
14143;SDS011;7152;48.348;10.980;2023-06-10T08:07:37;7.27;;;6.67;;
14143;SDS011;7152;48.348;10.980;2023-06-10T08:10:04;7.50;;;6.83;;
14143;SDS011;7152;48.348;10.980;2023-06-10T08:12:31;7.13;;;6.53;;
14143;SDS011;7152;48.348;10.980;2023-06-10T08:14:58;7.00;;;6.40;;
14143;SDS011;7152;48.348;10.980;2023-06-10T08:17:24;6.10;;;5.60;;
14143;SDS011;7152;48.348;10.980;2023-06-10T08:19:49;6.10;;;5.57;;
14143;SDS011;7152;48.348;10.980;2023-06-10T08:22:15;6.43;;;5.83;;
14143;SDS011;7152;48.348;10.980;2023-06-10T08:24:41;5.60;;;5.20;;
14143;SDS011;7152;48.348;10.980;2023-06-10T08:27:06;6.97;;;6.33;;
14143;SDS011;7152;48.348;10.980;2023-06-10T08:29:32;6.10;;;5.60;;
14143;SDS011;7152;48.348;10.980;2023-06-10T08:31:58;6.20;;;5.70;;
14143;SDS011;7152;48.348;10.980;2023-06-10T08:34:24;5.77;;;5.30;;
14143;SDS011;7152;48.348;10.980;2023-06-10T08:36:49;5.55;;;5.15;;
14143;SDS011;7152;48.348;10.980;2023-06-10T08:39:18;6.53;;;6.03;;
14143;SDS011;7152;48.348;10.980;2023-06-10T08:41:45;6.07;;;5.57;;
14143;SDS011;7152;48.348;10.980;2023-06-10T08:44:24;5.88;;;5.47;;
14143;SDS011;7152;48.348;10.980;2023-06-10T08:47:02;5.20;;;4.80;;
14143;SDS011;7152;48.348;10.980;2023-06-10T08:49:49;4.63;;;4.33;;
14143;SDS011;7152;48.348;10.980;2023-06-10T08:52:17;4.93;;;4.53;;
14143;SDS011;7152;48.348;10.980;2023-06-10T08:54:49;4.97;;;4.57;;
14143;SDS011;7152;48.348;10.980;2023-06-10T08:57:19;5.90;;;4.80;;
14143;SDS011;7152;48.348;10.980;2023-06-10T08:59:46;4.97;;;4.57;;
14143;SDS011;7152;48.348;10.980;2023-06-10T09:02:13;5.70;;;5.20;;
14143;SDS011;7152;48.348;10.980;2023-06-10T09:04:42;5.07;;;4.75;;
14143;SDS011;7152;48.348;10.980;2023-06-10T09:07:08;5.07;;;4.70;;
14143;SDS011;7152;48.348;10.980;2023-06-10T09:09:35;5.53;;;5.10;;
14143;SDS011;7152;48.348;10.980;2023-06-10T09:12:02;5.43;;;5.03;;
14143;SDS011;7152;48.348;10.980;2023-06-10T09:14:28;5.80;;;5.30;;
14143;SDS011;7152;48.348;10.980;2023-06-10T09:16:54;4.68;;;4.28;;
14143;SDS011;7152;48.348;10.980;2023-06-10T09:19:22;4.55;;;4.25;;
14143;SDS011;7152;48.348;10.980;2023-06-10T09:21:50;4.97;;;4.57;;
14143;SDS011;7152;48.348;10.980;2023-06-10T09:24:16;4.93;;;4.43;;
14143;SDS011;7152;48.348;10.980;2023-06-10T09:26:42;5.25;;;4.82;;
14143;SDS011;7152;48.348;10.980;2023-06-10T09:29:09;4.07;;;3.78;;
14143;SDS011;7152;48.348;10.980;2023-06-10T09:31:36;4.20;;;3.90;;
14143;SDS011;7152;48.348;10.980;2023-06-10T09:36:33;4.50;;;4.20;;
14143;SDS011;7152;48.348;10.980;2023-06-10T09:39:00;4.38;;;3.97;;
14143;SDS011;7152;48.348;10.980;2023-06-10T09:41:32;4.57;;;4.22;;
14143;SDS011;7152;48.348;10.980;2023-06-10T09:44:00;4.15;;;3.85;;
14143;SDS011;7152;48.348;10.980;2023-06-10T09:46:29;4.70;;;4.30;;
14143;SDS011;7152;48.348;10.980;2023-06-10T09:48:57;4.63;;;4.22;;
14143;SDS011;7152;48.348;10.980;2023-06-10T09:51:22;4.18;;;3.88;;
14143;SDS011;7152;48.348;10.980;2023-06-10T09:53:51;4.70;;;4.30;;
14143;SDS011;7152;48.348;10.980;2023-06-10T09:56:17;4.70;;;4.40;;
14143;SDS011;7152;48.348;10.980;2023-06-10T09:58:44;4.15;;;3.85;;
14143;SDS011;7152;48.348;10.980;2023-06-10T10:01:11;4.53;;;4.15;;
14143;SDS011;7152;48.348;10.980;2023-06-10T10:03:43;4.13;;;3.83;;
14143;SDS011;7152;48.348;10.980;2023-06-10T10:06:13;4.72;;;4.32;;
14143;SDS011;7152;48.348;10.980;2023-06-10T10:08:40;4.35;;;4.05;;
14143;SDS011;7152;48.348;10.980;2023-06-10T10:11:05;4.30;;;4.00;;
14143;SDS011;7152;48.348;10.980;2023-06-10T10:13:33;4.53;;;4.22;;
14143;SDS011;7152;48.348;10.980;2023-06-10T10:16:01;5.00;;;4.60;;
14143;SDS011;7152;48.348;10.980;2023-06-10T10:18:31;4.40;;;4.10;;
14143;SDS011;7152;48.348;10.980;2023-06-10T10:21:00;4.10;;;3.80;;
14143;SDS011;7152;48.348;10.980;2023-06-10T10:23:34;4.70;;;4.30;;
14143;SDS011;7152;48.348;10.980;2023-06-10T10:26:09;4.32;;;3.92;;
14143;SDS011;7152;48.348;10.980;2023-06-10T10:28:41;4.43;;;3.97;;
14143;SDS011;7152;48.348;10.980;2023-06-10T10:31:12;4.72;;;4.32;;
14143;SDS011;7152;48.348;10.980;2023-06-10T10:33:59;4.63;;;4.32;;
14143;SDS011;7152;48.348;10.980;2023-06-10T10:36:27;4.90;;;4.50;;
14143;SDS011;7152;48.348;10.980;2023-06-10T10:38:52;4.97;;;4.57;;
14143;SDS011;7152;48.348;10.980;2023-06-10T10:41:19;4.45;;;4.15;;
14143;SDS011;7152;48.348;10.980;2023-06-10T10:43:46;4.93;;;4.32;;
14143;SDS011;7152;48.348;10.980;2023-06-10T10:46:13;5.15;;;4.72;;
14143;SDS011;7152;48.348;10.980;2023-06-10T10:48:41;5.40;;;5.00;;
14143;SDS011;7152;48.348;10.980;2023-06-10T10:51:07;5.10;;;4.70;;
14143;SDS011;7152;48.348;10.980;2023-06-10T10:53:34;5.35;;;4.85;;
14143;SDS011;7152;48.348;10.980;2023-06-10T10:56:08;4.95;;;4.55;;
14143;SDS011;7152;48.348;10.980;2023-06-10T10:58:39;4.60;;;4.30;;
14143;SDS011;7152;48.348;10.980;2023-06-10T11:01:14;4.90;;;4.50;;
14143;SDS011;7152;48.348;10.980;2023-06-10T11:03:43;5.13;;;4.70;;
14143;SDS011;7152;48.348;10.980;2023-06-10T11:06:16;5.13;;;4.72;;
14143;SDS011;7152;48.348;10.980;2023-06-10T11:11:23;4.82;;;4.43;;
14143;SDS011;7152;48.348;10.980;2023-06-10T11:16:58;4.45;;;3.90;;
14143;SDS011;7152;48.348;10.980;2023-06-10T11:19:34;4.18;;;3.88;;
14143;SDS011;7152;48.348;10.980;2023-06-10T11:22:07;4.15;;;3.75;;
14143;SDS011;7152;48.348;10.980;2023-06-10T11:24:34;4.95;;;4.55;;
14143;SDS011;7152;48.348;10.980;2023-06-10T11:27:19;6.60;;;4.18;;
14143;SDS011;7152;48.348;10.980;2023-06-10T11:32:43;5.15;;;4.75;;
14143;SDS011;7152;48.348;10.980;2023-06-10T11:35:09;4.20;;;3.90;;
14143;SDS011;7152;48.348;10.980;2023-06-10T11:37:35;4.82;;;4.47;;
14143;SDS011;7152;48.348;10.980;2023-06-10T11:40:01;4.32;;;4.03;;
14143;SDS011;7152;48.348;10.980;2023-06-10T11:42:28;4.10;;;3.80;;
14143;SDS011;7152;48.348;10.980;2023-06-10T11:44:54;4.50;;;4.10;;
14143;SDS011;7152;48.348;10.980;2023-06-10T11:47:20;4.75;;;4.43;;
14143;SDS011;7152;48.348;10.980;2023-06-10T11:49:55;4.07;;;3.78;;
14143;SDS011;7152;48.348;10.980;2023-06-10T11:52:30;4.05;;;3.75;;
14143;SDS011;7152;48.348;10.980;2023-06-10T11:54:58;3.85;;;3.47;;
14143;SDS011;7152;48.348;10.980;2023-06-10T11:57:25;4.55;;;4.25;;
14143;SDS011;7152;48.348;10.980;2023-06-10T11:59:51;4.43;;;4.00;;
14143;SDS011;7152;48.348;10.980;2023-06-10T12:02:16;4.60;;;4.20;;
14143;SDS011;7152;48.348;10.980;2023-06-10T12:04:44;4.90;;;3.70;;
14143;SDS011;7152;48.348;10.980;2023-06-10T12:07:16;4.00;;;3.70;;
14143;SDS011;7152;48.348;10.980;2023-06-10T12:09:46;4.07;;;3.67;;
14143;SDS011;7152;48.348;10.980;2023-06-10T12:12:11;4.20;;;3.90;;
14143;SDS011;7152;48.348;10.980;2023-06-10T12:19:59;5.07;;;4.68;;
14143;SDS011;7152;48.348;10.980;2023-06-10T12:22:47;4.65;;;4.35;;
14143;SDS011;7152;48.348;10.980;2023-06-10T12:25:13;4.45;;;4.07;;
14143;SDS011;7152;48.348;10.980;2023-06-10T12:27:39;4.55;;;4.25;;
14143;SDS011;7152;48.348;10.980;2023-06-10T12:30:18;5.95;;;5.00;;
14143;SDS011;7152;48.348;10.980;2023-06-10T12:32:45;4.28;;;3.88;;
14143;SDS011;7152;48.348;10.980;2023-06-10T12:35:12;4.70;;;4.30;;
14143;SDS011;7152;48.348;10.980;2023-06-10T12:37:39;4.70;;;4.25;;
14143;SDS011;7152;48.348;10.980;2023-06-10T12:40:05;4.72;;;4.32;;
14143;SDS011;7152;48.348;10.980;2023-06-10T12:42:34;4.57;;;4.15;;
14143;SDS011;7152;48.348;10.980;2023-06-10T12:45:01;4.47;;;3.53;;
14143;SDS011;7152;48.348;10.980;2023-06-10T12:47:30;4.45;;;3.95;;
14143;SDS011;7152;48.348;10.980;2023-06-10T12:50:06;3.35;;;3.15;;
14143;SDS011;7152;48.348;10.980;2023-06-10T12:52:32;4.32;;;4.00;;
14143;SDS011;7152;48.348;10.980;2023-06-10T12:54:58;3.72;;;3.42;;
14143;SDS011;7152;48.348;10.980;2023-06-10T12:57:25;3.40;;;3.10;;
14143;SDS011;7152;48.348;10.980;2023-06-10T12:59:51;3.38;;;3.17;;
14143;SDS011;7152;48.348;10.980;2023-06-10T13:02:22;3.60;;;3.30;;
14143;SDS011;7152;48.348;10.980;2023-06-10T13:04:52;3.50;;;3.20;;
14143;SDS011;7152;48.348;10.980;2023-06-10T13:07:18;3.20;;;3.00;;
14143;SDS011;7152;48.348;10.980;2023-06-10T13:09:44;3.50;;;3.20;;
14143;SDS011;7152;48.348;10.980;2023-06-10T13:12:13;3.55;;;3.25;;
14143;SDS011;7152;48.348;10.980;2023-06-10T13:14:39;3.20;;;2.90;;
14143;SDS011;7152;48.348;10.980;2023-06-10T13:17:05;3.10;;;2.90;;
14143;SDS011;7152;48.348;10.980;2023-06-10T13:19:31;2.60;;;2.40;;
14143;SDS011;7152;48.348;10.980;2023-06-10T13:22:00;2.67;;;2.55;;
14143;SDS011;7152;48.348;10.980;2023-06-10T13:24:25;3.00;;;2.80;;
14143;SDS011;7152;48.348;10.980;2023-06-10T13:26:52;2.85;;;2.65;;
14143;SDS011;7152;48.348;10.980;2023-06-10T13:29:17;3.15;;;2.95;;
14143;SDS011;7152;48.348;10.980;2023-06-10T13:31:43;3.33;;;3.10;;
14143;SDS011;7152;48.348;10.980;2023-06-10T13:34:09;3.25;;;3.00;;
14143;SDS011;7152;48.348;10.980;2023-06-10T13:36:35;3.40;;;3.20;;
14143;SDS011;7152;48.348;10.980;2023-06-10T13:39:01;3.00;;;2.80;;
14143;SDS011;7152;48.348;10.980;2023-06-10T13:41:26;3.30;;;3.10;;
14143;SDS011;7152;48.348;10.980;2023-06-10T13:43:54;2.90;;;2.70;;
14143;SDS011;7152;48.348;10.980;2023-06-10T13:46:20;2.30;;;2.20;;
14143;SDS011;7152;48.348;10.980;2023-06-10T13:48:46;2.85;;;2.55;;
14143;SDS011;7152;48.348;10.980;2023-06-10T13:51:12;3.25;;;2.53;;
14143;SDS011;7152;48.348;10.980;2023-06-10T13:53:38;2.80;;;2.60;;
14143;SDS011;7152;48.348;10.980;2023-06-10T13:56:04;3.35;;;3.15;;
14143;SDS011;7152;48.348;10.980;2023-06-10T13:58:30;2.90;;;2.70;;
14143;SDS011;7152;48.348;10.980;2023-06-10T14:00:56;2.85;;;2.65;;
14143;SDS011;7152;48.348;10.980;2023-06-10T14:03:23;3.00;;;2.80;;
14143;SDS011;7152;48.348;10.980;2023-06-10T14:05:49;2.60;;;2.50;;
14143;SDS011;7152;48.348;10.980;2023-06-10T14:08:15;2.75;;;2.55;;
14143;SDS011;7152;48.348;10.980;2023-06-10T14:10:40;3.03;;;2.78;;
14143;SDS011;7152;48.348;10.980;2023-06-10T14:13:06;3.85;;;3.00;;
14143;SDS011;7152;48.348;10.980;2023-06-10T14:15:32;2.95;;;2.67;;
14143;SDS011;7152;48.348;10.980;2023-06-10T14:17:57;3.10;;;2.90;;
14143;SDS011;7152;48.348;10.980;2023-06-10T14:20:23;2.60;;;2.40;;
14143;SDS011;7152;48.348;10.980;2023-06-10T14:22:51;3.40;;;2.90;;
14143;SDS011;7152;48.348;10.980;2023-06-10T14:25:17;2.78;;;2.58;;
14143;SDS011;7152;48.348;10.980;2023-06-10T14:27:42;2.58;;;2.38;;
14143;SDS011;7152;48.348;10.980;2023-06-10T14:30:08;5.15;;;2.50;;
14143;SDS011;7152;48.348;10.980;2023-06-10T14:32:34;2.45;;;2.33;;
14143;SDS011;7152;48.348;10.980;2023-06-10T14:35:00;2.90;;;2.65;;
14143;SDS011;7152;48.348;10.980;2023-06-10T14:37:26;2.45;;;2.35;;
14143;SDS011;7152;48.348;10.980;2023-06-10T14:39:52;2.80;;;2.60;;
14143;SDS011;7152;48.348;10.980;2023-06-10T14:42:17;3.08;;;2.80;;
14143;SDS011;7152;48.348;10.980;2023-06-10T14:44:43;2.80;;;2.55;;
14143;SDS011;7152;48.348;10.980;2023-06-10T14:47:08;2.53;;;2.35;;
14143;SDS011;7152;48.348;10.980;2023-06-10T14:49:34;2.60;;;2.47;;
14143;SDS011;7152;48.348;10.980;2023-06-10T14:52:00;3.53;;;2.53;;
14143;SDS011;7152;48.348;10.980;2023-06-10T14:54:25;2.47;;;2.28;;
14143;SDS011;7152;48.348;10.980;2023-06-10T14:56:51;2.65;;;2.45;;